createdAt,value
2018-09-18T00:01:12.996Z,44.02
2018-09-18T00:04:37.358Z,45.11
2018-09-18T00:08:01.812Z,45.82
2018-09-18T00:11:26.272Z,44.77
2018-09-18T00:14:50.716Z,45.62
2018-09-18T00:18:15.187Z,45.28
2018-09-18T00:21:39.584Z,45.02
2018-09-18T00:25:03.990Z,44.96
2018-09-18T00:28:28.509Z,44.72
2018-09-18T00:31:53.030Z,45.36
2018-09-18T00:35:17.531Z,45.20
2018-09-18T00:38:42.179Z,45.43
2018-09-18T00:42:06.608Z,45.07
2018-09-18T00:45:31.053Z,44.68
2018-09-18T00:48:55.530Z,46.19
2018-09-18T00:52:20.000Z,45.99
2018-09-18T00:55:44.452Z,45.71
2018-09-18T00:59:08.901Z,45.71
2018-09-18T01:02:33.372Z,46.22
2018-09-18T01:05:57.887Z,47.77
2018-09-18T01:09:22.377Z,47.40
2018-09-18T01:12:46.897Z,46.76
2018-09-18T01:16:11.319Z,45.83
2018-09-18T01:19:35.742Z,46.38
2018-09-18T01:23:00.158Z,46.16
2018-09-18T01:26:24.611Z,46.41
2018-09-18T01:29:49.024Z,46.60
2018-09-18T01:33:13.458Z,46.61
2018-09-18T01:36:37.944Z,46.96
2018-09-18T01:40:02.365Z,46.95
2018-09-18T01:43:26.818Z,47.17
2018-09-18T01:46:51.267Z,47.97
2018-09-18T01:50:15.706Z,47.08
2018-09-18T01:53:40.149Z,48.33
2018-09-18T01:57:04.607Z,47.58
2018-09-18T02:00:29.023Z,47.85
2018-09-18T02:03:53.466Z,47.92
2018-09-18T02:07:17.913Z,49.17
2018-09-18T02:10:42.382Z,47.81
2018-09-18T02:14:06.849Z,47.77
2018-09-18T02:17:31.296Z,47.84
2018-09-18T02:20:55.766Z,47.79
2018-09-18T02:24:20.234Z,47.93
2018-09-18T02:27:44.664Z,47.40
2018-09-18T02:31:09.054Z,47.64
2018-09-18T02:34:33.459Z,47.73
2018-09-18T02:37:57.899Z,47.31
2018-09-18T02:41:22.323Z,47.87
2018-09-18T02:44:46.751Z,47.94
2018-09-18T02:48:11.147Z,47.04
2018-09-18T02:51:35.573Z,46.92
2018-09-18T02:55:00.015Z,47.42
2018-09-18T02:58:24.501Z,46.67
2018-09-18T03:01:48.954Z,46.99
2018-09-18T03:05:13.351Z,46.16
2018-09-18T03:08:37.773Z,46.20
2018-09-18T03:12:02.301Z,45.58
2018-09-18T03:15:26.730Z,45.71
2018-09-18T03:18:51.143Z,45.03
2018-09-18T03:22:15.594Z,45.37
2018-09-18T03:25:39.999Z,45.52
2018-09-18T03:29:04.469Z,46.00
2018-09-18T03:32:28.912Z,45.44
2018-09-18T03:35:53.328Z,45.55
2018-09-18T03:39:17.728Z,45.76
2018-09-18T03:42:42.301Z,45.25
2018-09-18T03:46:06.761Z,44.80
2018-09-18T03:49:31.289Z,45.58
2018-09-18T03:52:55.740Z,44.84
2018-09-18T03:56:20.157Z,45.06
2018-09-18T03:59:44.606Z,45.66
2018-09-18T04:03:09.050Z,45.62
2018-09-18T04:06:33.465Z,44.69
2018-09-18T04:09:57.966Z,45.41
2018-09-18T04:13:22.428Z,45.13
2018-09-18T04:16:46.837Z,44.86
2018-09-18T04:20:11.288Z,45.35
2018-09-18T04:23:35.743Z,45.50
2018-09-18T04:27:00.607Z,45.27
2018-09-18T04:30:25.047Z,44.98
2018-09-18T04:33:49.466Z,45.43
2018-09-18T04:37:13.850Z,45.68
2018-09-18T04:40:38.528Z,44.94
2018-09-18T04:44:02.959Z,44.65
2018-09-18T04:47:27.354Z,45.34
2018-09-18T04:50:51.808Z,45.09
2018-09-18T04:54:51.222Z,45.53
2018-09-18T04:58:16.361Z,45.64
2018-09-18T05:01:40.788Z,46.22
2018-09-18T05:05:05.767Z,46.68
2018-09-18T05:08:30.208Z,46.88
2018-09-18T05:11:54.689Z,46.59
2018-09-18T05:15:19.201Z,46.78
2018-09-18T05:18:43.733Z,47.37
2018-09-18T05:22:08.199Z,46.89
2018-09-18T05:25:32.629Z,46.16
2018-09-18T05:28:57.066Z,46.21
2018-09-18T05:32:21.537Z,47.09
2018-09-18T05:35:45.965Z,46.21
2018-09-18T05:39:11.811Z,46.83
2018-09-18T05:42:36.259Z,46.53
2018-09-18T05:46:00.696Z,46.53
2018-09-18T05:49:27.270Z,46.12
2018-09-18T05:52:51.898Z,46.25
2018-09-18T05:56:16.345Z,46.45
2018-09-18T05:59:40.818Z,46.90
2018-09-18T06:03:05.313Z,46.68
2018-09-18T06:06:29.851Z,46.40
2018-09-18T06:09:54.384Z,46.58
2018-09-18T06:13:18.839Z,46.44
2018-09-18T06:16:43.263Z,45.72
2018-09-18T06:20:07.815Z,45.71
2018-09-18T06:23:32.277Z,46.00
2018-09-18T06:26:56.757Z,46.30
2018-09-18T06:30:21.234Z,46.29
2018-09-18T06:33:45.698Z,45.84
2018-09-18T06:37:10.169Z,45.80
2018-09-18T06:40:41.550Z,45.36
2018-09-18T06:44:06.240Z,45.31
2018-09-18T06:47:30.683Z,44.93
2018-09-18T06:50:55.142Z,44.48
2018-09-18T06:54:19.624Z,44.63
2018-09-18T06:57:44.057Z,45.35
2018-09-18T07:01:08.580Z,44.77
2018-09-18T07:04:33.018Z,43.99
2018-09-18T07:07:57.518Z,44.19
2018-09-18T07:11:22.010Z,44.17
2018-09-18T07:14:46.442Z,43.89
2018-09-18T07:18:10.989Z,43.45
2018-09-18T07:21:35.386Z,42.78
2018-09-18T07:25:06.494Z,43.62
2018-09-18T07:28:31.442Z,43.58
2018-09-18T07:31:55.903Z,42.79
2018-09-18T07:35:20.340Z,42.59
2018-09-18T07:38:44.961Z,43.25
2018-09-18T07:42:09.409Z,43.10
2018-09-18T07:45:33.890Z,41.97
2018-09-18T07:49:02.263Z,41.31
2018-09-18T07:52:26.711Z,41.75
2018-09-18T07:55:51.131Z,41.76
2018-09-18T07:59:15.556Z,41.75
2018-09-18T08:02:40.030Z,41.62
2018-09-18T08:06:04.528Z,41.36
2018-09-18T08:09:29.020Z,41.06
2018-09-18T08:12:53.503Z,40.63
2018-09-18T08:16:17.928Z,40.90
2018-09-18T08:19:42.541Z,40.68
2018-09-18T08:23:06.838Z,40.92
2018-09-18T08:26:31.288Z,40.14
2018-09-18T08:29:55.804Z,40.64
2018-09-18T08:33:20.265Z,40.04
2018-09-18T08:36:44.699Z,40.67
2018-09-18T08:40:09.348Z,39.13
2018-09-18T08:43:33.658Z,39.21
2018-09-18T08:46:58.148Z,39.07
2018-09-18T08:50:22.626Z,38.34
2018-09-18T08:53:47.129Z,38.90
2018-09-18T08:57:11.571Z,38.09
2018-09-18T09:00:36.025Z,37.91
2018-09-18T09:04:00.538Z,37.77
2018-09-18T09:07:24.975Z,38.06
2018-09-18T09:10:49.543Z,37.93
2018-09-18T09:14:14.178Z,37.37
2018-09-18T09:17:38.651Z,36.71
2018-09-18T09:21:03.157Z,36.85
2018-09-18T09:24:27.568Z,36.67
2018-09-18T09:27:52.088Z,36.12
2018-09-18T09:31:16.516Z,35.60
2018-09-18T09:34:40.936Z,36.39
2018-09-18T09:38:05.376Z,36.62
2018-09-18T09:41:29.801Z,35.31
2018-09-18T09:44:54.301Z,34.08
2018-09-18T09:48:18.783Z,34.73
2018-09-18T09:51:43.417Z,34.73
2018-09-18T09:55:07.760Z,34.75
2018-09-18T09:58:32.235Z,34.45
2018-09-18T10:02:01.855Z,33.92
2018-09-18T10:05:26.297Z,33.33
2018-09-18T10:08:50.752Z,33.26
2018-09-18T10:12:15.216Z,34.01
2018-09-18T10:15:39.701Z,33.26
2018-09-18T10:19:04.193Z,32.95
2018-09-18T10:22:28.636Z,32.28
2018-09-18T10:25:53.132Z,32.11
2018-09-18T10:29:17.554Z,31.66
2018-09-18T10:32:42.093Z,31.84
2018-09-18T10:36:06.495Z,31.25
2018-09-18T10:39:30.985Z,31.41
2018-09-18T10:42:55.441Z,31.03
2018-09-18T10:46:20.034Z,32.57
2018-09-18T10:49:44.485Z,34.17
2018-09-18T10:53:08.928Z,34.08
2018-09-18T10:56:33.362Z,33.88
2018-09-18T10:59:57.848Z,33.22
2018-09-18T11:03:22.325Z,32.74
2018-09-18T11:06:46.775Z,33.11
2018-09-18T11:10:11.303Z,32.64
2018-09-18T11:13:35.771Z,31.56
2018-09-18T11:17:00.206Z,31.21
2018-09-18T11:20:24.622Z,31.05
2018-09-18T11:23:49.141Z,29.65
2018-09-18T11:27:13.564Z,29.83
2018-09-18T11:30:38.087Z,28.44
2018-09-18T11:34:02.489Z,27.65
2018-09-18T11:37:26.906Z,24.07
2018-09-18T11:40:51.287Z,23.30
2018-09-18T11:44:15.749Z,24.54
2018-09-18T11:47:40.173Z,23.65
2018-09-18T11:51:04.652Z,23.78
2018-09-18T11:54:29.096Z,24.61
2018-09-18T11:57:53.575Z,23.81
2018-09-18T12:01:18.018Z,23.85
2018-09-18T12:04:42.525Z,22.61
2018-09-18T12:08:07.355Z,19.38
2018-09-18T12:11:32.024Z,19.39
2018-09-18T12:14:56.447Z,20.63
2018-09-18T12:18:20.906Z,20.03
2018-09-18T12:21:45.356Z,19.46
2018-09-18T12:25:09.795Z,20.13
2018-09-18T12:28:34.331Z,19.74
2018-09-18T12:31:58.786Z,18.59
2018-09-18T12:35:23.253Z,18.25
2018-09-18T12:38:47.751Z,17.99
2018-09-18T12:42:12.413Z,18.87
2018-09-18T12:45:36.702Z,18.35
2018-09-18T12:49:01.248Z,17.77
2018-09-18T12:52:25.672Z,17.48
2018-09-18T12:55:50.113Z,17.67
2018-09-18T12:59:14.632Z,16.58
2018-09-18T13:02:39.068Z,18.47
2018-09-18T13:06:03.573Z,17.58
2018-09-18T13:09:28.038Z,17.39
2018-09-18T13:12:52.490Z,16.83
2018-09-18T13:16:16.955Z,17.14
2018-09-18T13:19:41.384Z,17.14
2018-09-18T13:23:06.015Z,18.72
2018-09-18T13:26:30.442Z,16.14
2018-09-18T13:29:54.962Z,16.52
2018-09-18T13:33:19.400Z,17.04
2018-09-18T13:36:43.920Z,17.59
2018-09-18T13:40:08.403Z,17.55
2018-09-18T13:43:32.886Z,19.12
2018-09-18T13:46:57.545Z,17.11
2018-09-18T13:50:22.088Z,16.59
2018-09-18T13:53:46.439Z,16.55
2018-09-18T13:57:10.865Z,15.71
2018-09-18T14:00:35.753Z,14.98
2018-09-18T14:04:00.408Z,14.14
2018-09-18T14:07:24.874Z,14.18
2018-09-18T14:10:49.559Z,14.79
2018-09-18T14:14:14.118Z,15.22
2018-09-18T14:17:38.857Z,15.74
2018-09-18T14:21:03.569Z,16.27
2018-09-18T14:24:28.217Z,16.49
2018-09-18T14:27:53.688Z,16.49
2018-09-18T14:31:18.114Z,16.98
2018-09-18T14:34:42.547Z,16.83
2018-09-18T14:38:07.105Z,16.44
2018-09-18T14:41:31.516Z,16.76
2018-09-18T14:44:56.300Z,16.51
2018-09-18T14:48:20.962Z,16.51
2018-09-18T14:51:45.423Z,17.22
2018-09-18T14:55:10.005Z,16.79
2018-09-18T14:58:34.413Z,17.54
2018-09-18T15:01:58.865Z,16.88
2018-09-18T15:05:24.489Z,16.66
2018-09-18T15:08:49.007Z,17.57
2018-09-18T15:12:14.163Z,16.78
2018-09-18T15:15:38.903Z,16.40
2018-09-18T15:19:03.871Z,17.05
2018-09-18T15:22:28.626Z,16.79
2018-09-18T15:25:53.102Z,16.95
2018-09-18T15:29:23.778Z,18.20
2018-09-18T15:32:49.426Z,17.98
2018-09-18T15:36:13.823Z,17.38
2018-09-18T15:39:38.398Z,17.41
2018-09-18T15:43:02.846Z,18.48
2018-09-18T15:46:27.328Z,18.17
2018-09-18T15:53:25.849Z,17.27
2018-09-18T15:56:50.337Z,17.29
2018-09-18T16:00:14.858Z,18.01
2018-09-18T16:03:39.360Z,17.91
2018-09-18T16:07:03.932Z,17.53
2018-09-18T16:10:28.401Z,18.45
2018-09-18T16:13:52.934Z,18.87
2018-09-18T16:17:17.543Z,18.47
2018-09-18T16:20:42.043Z,19.28
2018-09-18T16:24:06.883Z,19.19
2018-09-18T16:27:31.381Z,18.33
2018-09-18T16:30:56.014Z,19.03
2018-09-18T16:34:20.582Z,19.33
2018-09-18T16:37:47.995Z,19.30
2018-09-18T16:41:12.583Z,21.24
2018-09-18T16:44:37.071Z,23.29
2018-09-18T16:48:01.679Z,24.05
2018-09-18T16:51:26.095Z,25.13
2018-09-18T16:54:50.669Z,25.61
2018-09-18T16:58:15.148Z,26.52
2018-09-18T17:01:39.903Z,26.94
2018-09-18T17:05:08.467Z,27.10
2018-09-18T17:08:33.040Z,27.40
2018-09-18T17:11:57.506Z,27.59
2018-09-18T17:15:21.960Z,27.79
2018-09-18T17:18:46.510Z,28.88
2018-09-18T17:22:11.086Z,28.58
2018-09-18T17:25:35.544Z,29.88
2018-09-18T17:29:00.142Z,29.98
2018-09-18T17:32:24.422Z,30.19
2018-09-18T17:35:48.917Z,29.91
2018-09-18T17:39:13.379Z,30.57
2018-09-18T17:42:37.854Z,31.12
2018-09-18T17:46:02.673Z,32.39
2018-09-18T17:49:27.119Z,33.28
2018-09-18T17:52:51.784Z,32.87
2018-09-18T17:56:16.479Z,33.76
2018-09-18T17:59:41.099Z,33.33
2018-09-18T18:03:05.605Z,34.62
2018-09-18T18:06:41.654Z,35.26
2018-09-18T18:10:08.797Z,35.77
2018-09-18T18:13:36.637Z,34.90
2018-09-18T18:17:01.202Z,36.13
2018-09-18T18:20:25.823Z,35.22
2018-09-18T18:23:50.186Z,38.68
2018-09-18T18:27:14.682Z,38.33
2018-09-18T18:30:39.184Z,39.14
2018-09-18T18:34:03.624Z,38.43
2018-09-18T18:37:28.199Z,38.82
2018-09-18T18:40:52.823Z,39.54
2018-09-18T18:44:17.287Z,39.02
2018-09-18T18:47:41.857Z,38.73
2018-09-18T18:51:06.343Z,39.67
2018-09-18T18:54:30.833Z,39.50
2018-09-18T18:57:55.422Z,39.74
2018-09-18T19:01:19.867Z,41.14
2018-09-18T19:04:44.359Z,41.29
2018-09-18T19:08:08.957Z,41.38
2018-09-18T19:11:33.410Z,41.17
2018-09-18T19:14:57.846Z,41.72
2018-09-18T19:18:22.351Z,43.96
2018-09-18T19:21:46.827Z,42.79
2018-09-18T19:25:11.321Z,44.68
2018-09-18T19:28:35.787Z,44.49
2018-09-18T19:32:00.278Z,44.95
2018-09-18T19:35:24.754Z,45.45
2018-09-18T19:38:53.166Z,46.79
2018-09-18T19:42:21.679Z,46.63
2018-09-18T19:45:46.329Z,46.13
2018-09-18T19:49:10.984Z,46.78
2018-09-18T19:52:36.111Z,45.98
2018-09-18T19:56:01.130Z,46.43
2018-09-18T19:59:25.761Z,47.08
2018-09-18T20:02:50.192Z,47.87
2018-09-18T20:06:18.707Z,48.75
2018-09-18T20:09:43.365Z,50.07
2018-09-18T20:13:07.879Z,50.49
2018-09-18T20:16:32.534Z,50.21
2018-09-18T20:19:57.260Z,50.13
2018-09-18T20:23:21.655Z,50.81
2018-09-18T20:26:46.212Z,50.66
2018-09-18T20:30:10.996Z,51.14
2018-09-18T20:33:35.451Z,51.59
2018-09-18T20:36:59.863Z,51.64
2018-09-18T20:40:24.341Z,52.25
2018-09-18T20:43:48.792Z,51.91
2018-09-18T20:47:13.234Z,51.92
2018-09-18T20:50:37.752Z,52.78
2018-09-18T20:54:02.342Z,52.31
2018-09-18T20:57:26.766Z,52.41
2018-09-18T21:00:51.614Z,53.38
2018-09-18T21:04:16.369Z,53.81
2018-09-18T21:07:40.988Z,53.35
2018-09-18T21:11:05.743Z,54.42
2018-09-18T21:14:30.523Z,54.43
2018-09-18T21:17:55.076Z,54.02
2018-09-18T21:21:19.833Z,54.57
2018-09-18T21:24:44.417Z,55.73
2018-09-18T21:28:09.528Z,54.96
2018-09-18T21:31:33.984Z,54.75
2018-09-18T21:34:58.540Z,56.17
2018-09-18T21:38:23.004Z,57.03
2018-09-18T21:41:47.460Z,56.04
2018-09-18T21:45:11.899Z,57.19
2018-09-18T21:48:36.389Z,56.23
2018-09-18T21:52:00.867Z,57.54
2018-09-18T21:55:25.281Z,57.90
2018-09-18T21:58:49.732Z,58.77
2018-09-18T22:02:14.186Z,58.30
2018-09-18T22:05:38.782Z,58.36
2018-09-18T22:09:03.360Z,57.75
2018-09-18T22:12:27.862Z,57.00
2018-09-18T22:15:52.292Z,56.70
2018-09-18T22:19:16.663Z,57.90
2018-09-18T22:22:41.113Z,57.53
2018-09-18T22:26:05.579Z,57.56
2018-09-18T22:29:30.115Z,57.59
2018-09-18T22:32:54.576Z,57.81
2018-09-18T22:36:19.021Z,57.74
2018-09-18T22:39:43.541Z,57.84
2018-09-18T22:43:08.011Z,58.21
2018-09-18T22:46:32.485Z,58.74
2018-09-18T22:49:56.984Z,59.26
2018-09-18T22:53:21.549Z,59.61
2018-09-18T22:56:45.969Z,60.08
2018-09-18T23:00:10.695Z,59.85
2018-09-18T23:03:35.138Z,59.72
2018-09-18T23:06:59.615Z,59.47
2018-09-18T23:10:24.058Z,60.00
2018-09-18T23:13:48.550Z,59.64
2018-09-18T23:17:13.005Z,60.70
2018-09-18T23:20:37.417Z,60.81
2018-09-18T23:24:01.946Z,60.38
2018-09-18T23:27:26.322Z,60.71
2018-09-18T23:30:50.834Z,61.25
2018-09-18T23:34:15.331Z,61.28
2018-09-18T23:37:39.858Z,61.20
2018-09-18T23:41:04.284Z,61.98
2018-09-18T23:44:29.009Z,62.31
2018-09-18T23:47:53.542Z,61.78
2018-09-18T23:51:18.003Z,62.23
2018-09-18T23:54:42.460Z,62.25
2018-09-18T23:58:06.895Z,62.89
